Whakatane (NZWK)

Aerodrome — Elev 20
New Zealand
S037.55.14.002 E176.54.51.001
Loading chart...

Current Weather

NZWK 211700Z 33009KT 10KM SHRA BKN050 13/10 Q0989 RMK ALT NZTG VATSIM USE ONLY

Published 1 hours 48 minutes ago

Airport Activity

Loading chart...
Loading chart...

Positions

CallsignRadio Name / Freq / Voice Room / TypeFrequencyVoice RoomType
NZCH-B_CTR Bay Approach
119.500
nzch-b_ctr
119.500nzch-b_ctr

Charts

Ground Charts

Aerodrome (1) & (2)

Other Charts

Operational Data